createdAt,value
2023-05-14T00:01:42.384Z,100508.00
2023-05-14T00:04:09.353Z,100515.09
2023-05-14T00:06:36.777Z,100509.78
2023-05-14T00:09:04.459Z,100515.06
2023-05-14T00:11:31.887Z,100518.59
2023-05-14T00:13:58.962Z,100521.25
2023-05-14T00:16:26.418Z,100523.03
2023-05-14T00:18:53.893Z,100526.56
2023-05-14T00:21:21.578Z,100527.44
2023-05-14T00:23:48.984Z,100529.22
2023-05-14T00:26:16.287Z,100535.41
2023-05-14T00:28:43.726Z,100530.97
2023-05-14T00:31:11.291Z,100525.69
2023-05-14T00:33:38.723Z,100536.31
2023-05-14T00:36:06.195Z,100531.00
2023-05-14T00:38:33.210Z,100519.53
2023-05-14T00:41:00.159Z,100513.34
2023-05-14T00:43:27.626Z,100512.47
2023-05-14T00:45:56.123Z,100506.28
2023-05-14T00:48:23.563Z,100499.19
2023-05-14T00:50:51.483Z,100493.91
2023-05-14T00:53:19.829Z,100491.25
2023-05-14T00:55:49.198Z,100479.75
2023-05-14T00:58:16.670Z,100483.28
2023-05-14T01:00:44.159Z,100474.44
2023-05-14T01:03:11.885Z,100486.81
2023-05-14T01:06:08.980Z,100484.19
2023-05-14T01:09:06.768Z,100481.50
2023-05-14T01:12:20.980Z,100478.88
2023-05-14T01:15:12.648Z,100474.44
2023-05-14T01:17:49.170Z,100472.66
2023-05-14T01:20:16.787Z,100477.97
2023-05-14T01:22:43.845Z,100474.44
2023-05-14T01:25:11.083Z,100469.13
2023-05-14T01:27:59.435Z,100470.00
2023-05-14T01:30:41.419Z,100469.13
2023-05-14T01:33:14.092Z,100471.78
2023-05-14T01:35:41.667Z,100467.34
2023-05-14T01:38:12.656Z,100470.91
2023-05-14T01:40:40.052Z,100467.34
2023-05-14T01:43:07.157Z,100476.19
2023-05-14T01:45:36.687Z,100493.00
2023-05-14T01:48:05.761Z,100485.03
2023-05-14T01:50:32.841Z,100489.47
2023-05-14T01:53:00.452Z,100486.78
2023-05-14T01:55:27.877Z,100486.81
2023-05-14T01:57:55.022Z,100491.22
2023-05-14T02:00:26.234Z,100493.88
2023-05-14T02:02:53.539Z,100500.94
2023-05-14T02:05:21.281Z,100496.50
2023-05-14T02:07:48.451Z,100503.59
2023-05-14T02:10:15.650Z,100501.81
2023-05-14T02:12:42.721Z,100498.28
2023-05-14T02:15:11.183Z,100492.09
2023-05-14T02:17:38.381Z,100486.78
2023-05-14T02:20:06.495Z,100485.91
2023-05-14T02:22:33.890Z,100478.84
2023-05-14T02:25:01.510Z,100476.19
2023-05-14T02:27:28.594Z,100477.06
2023-05-14T02:30:00.785Z,100481.47
2023-05-14T02:32:28.909Z,100479.72
2023-05-14T02:34:56.054Z,100476.16
2023-05-14T02:37:23.460Z,100484.13
2023-05-14T02:39:50.488Z,100485.88
2023-05-14T02:42:17.481Z,100483.22
2023-05-14T02:44:44.888Z,100485.00
2023-05-14T02:47:12.043Z,100494.72
2023-05-14T02:49:40.392Z,100504.44
2023-05-14T02:52:07.485Z,100498.22
2023-05-14T02:54:34.727Z,100494.69
2023-05-14T02:57:01.819Z,100504.41
2023-05-14T02:59:29.549Z,100504.41
2023-05-14T03:01:57.006Z,100504.41
2023-05-14T03:04:24.418Z,100502.63
2023-05-14T03:06:51.815Z,100518.53
2023-05-14T03:09:18.826Z,100522.97
2023-05-14T03:11:45.990Z,100530.00
2023-05-14T03:14:12.942Z,100531.78
2023-05-14T03:16:42.405Z,100544.09
2023-05-14T03:19:10.203Z,100547.59
2023-05-14T03:21:37.436Z,100556.41
2023-05-14T03:24:04.614Z,100568.75
2023-05-14T03:26:31.987Z,100570.50
2023-05-14T03:28:59.455Z,100582.00
2023-05-14T03:31:26.871Z,100578.44
2023-05-14T03:33:54.055Z,100581.06
2023-05-14T03:36:21.041Z,100574.81
2023-05-14T03:38:48.049Z,100582.66
2023-05-14T03:41:15.070Z,100587.00
2023-05-14T03:43:42.475Z,100592.31
2023-05-14T03:46:09.681Z,100589.66
2023-05-14T03:48:37.080Z,100594.91
2023-05-14T03:51:04.664Z,100601.97
2023-05-14T03:53:31.728Z,100603.75
2023-05-14T03:55:59.190Z,100604.59
2023-05-14T03:58:26.923Z,100605.47
2023-05-14T04:00:54.314Z,100615.16
2023-05-14T04:03:21.619Z,100621.31
2023-05-14T04:05:53.173Z,100611.63
2023-05-14T04:08:20.299Z,100625.72
2023-05-14T04:10:47.642Z,100623.00
2023-05-14T04:13:17.918Z,100637.09
2023-05-14T04:15:45.706Z,100645.91
2023-05-14T04:18:13.284Z,100649.38
2023-05-14T04:20:41.206Z,100649.28
2023-05-14T04:23:09.240Z,100662.50
2023-05-14T04:25:36.329Z,100670.47
2023-05-14T04:28:03.799Z,100681.88
2023-05-14T04:30:31.252Z,100681.91
2023-05-14T04:32:58.818Z,100692.47
2023-05-14T04:35:26.342Z,100703.13
2023-05-14T04:37:53.777Z,100698.81
2023-05-14T04:40:22.891Z,100689.13
2023-05-14T04:42:50.398Z,100696.13
2023-05-14T04:45:17.806Z,100703.25
2023-05-14T04:47:46.143Z,100702.34
2023-05-14T04:50:13.750Z,100700.63
2023-05-14T04:52:41.256Z,100703.31
2023-05-14T04:55:12.165Z,100704.19
2023-05-14T04:57:39.601Z,100713.91
2023-05-14T05:00:08.255Z,100721.00
2023-05-14T05:02:38.675Z,100716.66
2023-05-14T05:05:06.329Z,100729.13
2023-05-14T05:07:33.833Z,100714.84
2023-05-14T05:10:00.862Z,100722.91
2023-05-14T05:12:30.368Z,100718.50
2023-05-14T05:14:58.136Z,100713.19
2023-05-14T05:17:25.895Z,100706.19
2023-05-14T05:19:53.403Z,100715.94
2023-05-14T05:22:20.983Z,100713.41
2023-05-14T05:24:50.891Z,100716.97
2023-05-14T05:27:18.289Z,100714.22
2023-05-14T05:29:46.447Z,100709.91
2023-05-14T05:32:14.075Z,100711.69
2023-05-14T05:34:41.792Z,100714.47
2023-05-14T05:37:12.788Z,100718.03
2023-05-14T05:39:40.572Z,100710.97
2023-05-14T05:42:08.794Z,100719.00
2023-05-14T05:44:42.557Z,100716.38
2023-05-14T05:47:09.969Z,100719.97
2023-05-14T05:49:37.746Z,100719.13
2023-05-14T05:52:05.785Z,100714.66
2023-05-14T05:54:33.139Z,100712.06
2023-05-14T05:57:00.851Z,100706.78
2023-05-14T05:59:35.445Z,100704.19
2023-05-14T06:02:03.198Z,100697.09
2023-05-14T06:04:30.706Z,100702.47
2023-05-14T06:06:58.082Z,100699.00
2023-05-14T06:09:25.675Z,100691.06
2023-05-14T06:11:52.642Z,100683.13
2023-05-14T06:14:20.711Z,100672.56
2023-05-14T06:16:48.275Z,100663.69
2023-05-14T06:19:15.948Z,100657.50
2023-05-14T06:21:44.597Z,100640.72
2023-05-14T06:24:13.445Z,100630.94
2023-05-14T06:26:40.863Z,100623.91
2023-05-14T06:29:11.269Z,100616.84
2023-05-14T06:31:39.320Z,100610.66
2023-05-14T06:34:08.021Z,100601.81
2023-05-14T06:36:35.542Z,100596.50
2023-05-14T06:39:06.170Z,100606.25
2023-05-14T06:41:34.846Z,100602.72
2023-05-14T06:44:02.238Z,100599.19
2023-05-14T06:46:29.649Z,100597.44
2023-05-14T06:48:59.204Z,100590.41
2023-05-14T06:51:27.185Z,100579.78
2023-05-14T06:53:56.188Z,100571.81
2023-05-14T06:56:23.660Z,100563.91
2023-05-14T06:58:51.221Z,100558.59
2023-05-14T07:01:18.622Z,100554.16
2023-05-14T07:03:45.998Z,100545.28
2023-05-14T07:06:14.122Z,100553.22
2023-05-14T07:08:41.150Z,100532.84
2023-05-14T07:11:08.646Z,100539.00
2023-05-14T07:13:36.337Z,100528.34
2023-05-14T07:16:03.784Z,100504.47
2023-05-14T07:18:31.433Z,100515.03
2023-05-14T07:20:58.916Z,100506.94
2023-05-14T07:23:25.885Z,100494.50
2023-05-14T07:25:53.296Z,100451.09
2023-05-14T07:28:20.681Z,100453.69
2023-05-14T07:30:48.171Z,100421.72
2023-05-14T07:33:15.574Z,100419.72
2023-05-14T07:35:42.542Z,100393.94
2023-05-14T07:38:09.980Z,100384.75
2023-05-14T07:40:36.946Z,100360.78
2023-05-14T07:43:04.489Z,100335.94
2023-05-14T07:45:31.895Z,100316.97
2023-05-14T07:47:59.510Z,100291.03
2023-05-14T07:50:27.270Z,100238.91
2023-05-14T07:52:54.347Z,100203.38
2023-05-14T07:55:21.462Z,100223.44
2023-05-14T07:57:48.908Z,100231.78
2023-05-14T08:00:17.189Z,100212.94
2023-05-14T08:02:45.290Z,100205.63
2023-05-14T08:05:12.709Z,100178.19
2023-05-14T08:07:40.202Z,100155.34
2023-05-14T08:10:08.133Z,100169.13
2023-05-14T08:12:35.787Z,100137.25
2023-05-14T08:15:03.535Z,100119.31
2023-05-14T08:17:30.696Z,100092.84
2023-05-14T08:19:57.750Z,100058.47
2023-05-14T08:22:24.743Z,100078.25
2023-05-14T08:24:51.893Z,100031.06
2023-05-14T08:27:19.008Z,99980.06
2023-05-14T08:29:47.270Z,100027.91
2023-05-14T08:32:22.568Z,99997.56
2023-05-14T08:34:51.036Z,99918.13
2023-05-14T08:37:18.241Z,99961.38
2023-05-14T08:39:45.352Z,99966.88
2023-05-14T08:42:13.886Z,100021.34
2023-05-14T08:44:55.024Z,99938.47
2023-05-14T08:47:24.176Z,99926.28
2023-05-14T08:50:06.544Z,99967.22
2023-05-14T08:52:35.219Z,99914.53
2023-05-14T08:55:06.497Z,99894.75
2023-05-14T08:57:34.713Z,99874.09
2023-05-14T09:00:15.161Z,99896.91
2023-05-14T09:02:44.814Z,99886.97
2023-05-14T09:05:13.322Z,99698.81
2023-05-14T09:07:40.583Z,99749.72
2023-05-14T09:10:09.269Z,99708.94
2023-05-14T09:12:36.408Z,99730.59
2023-05-14T09:15:05.126Z,99803.41
2023-05-14T09:17:33.829Z,99802.38
2023-05-14T09:20:01.435Z,99788.81
2023-05-14T09:22:32.545Z,99725.41
2023-05-14T09:25:05.484Z,99741.81
2023-05-14T09:27:33.936Z,99606.25
2023-05-14T09:30:10.804Z,99735.28
2023-05-14T09:32:47.306Z,99723.03
2023-05-14T09:35:25.531Z,99563.84
2023-05-14T09:37:54.759Z,99486.09
2023-05-14T09:40:24.616Z,99568.81
2023-05-14T09:42:52.196Z,99484.19
2023-05-14T09:45:22.895Z,99450.97
2023-05-14T09:47:50.474Z,99396.97
2023-05-14T09:50:17.704Z,99536.78
2023-05-14T09:52:45.992Z,99601.19
2023-05-14T09:55:13.691Z,99603.09
2023-05-14T09:57:40.899Z,99606.19
2023-05-14T10:00:09.415Z,99493.66
2023-05-14T10:02:38.867Z,99569.34
2023-05-14T10:05:07.655Z,99455.72
2023-05-14T10:07:44.777Z,99394.22
2023-05-14T10:10:17.129Z,99487.47
2023-05-14T10:12:57.420Z,99462.13
2023-05-14T10:15:34.887Z,99452.66
2023-05-14T10:18:11.550Z,99514.47
2023-05-14T10:20:41.167Z,99398.63
2023-05-14T10:23:08.358Z,99325.00
2023-05-14T10:25:36.964Z,99404.16
2023-05-14T10:28:05.019Z,99308.63
2023-05-14T10:30:32.749Z,99439.09
2023-05-14T10:33:12.574Z,99276.13
2023-05-14T10:36:06.129Z,99263.50
2023-05-14T10:38:36.128Z,99294.00
2023-05-14T10:41:21.553Z,99256.72
2023-05-14T10:43:48.873Z,99216.34
2023-05-14T10:46:16.189Z,99219.34
2023-05-14T10:48:44.492Z,99144.94
2023-05-14T10:51:12.639Z,99146.19
2023-05-14T10:53:42.388Z,99202.03
2023-05-14T10:56:14.420Z,99249.19
2023-05-14T10:58:45.907Z,99244.28
2023-05-14T11:01:13.892Z,99217.53
2023-05-14T11:03:46.679Z,99195.50
2023-05-14T11:06:16.360Z,99269.34
2023-05-14T11:08:46.704Z,99251.66
2023-05-14T11:11:14.240Z,99185.59
2023-05-14T11:13:43.052Z,99229.16
2023-05-14T11:18:42.015Z,99205.59
2023-05-14T11:21:09.333Z,99180.97
2023-05-14T11:23:36.347Z,99223.22
2023-05-14T11:26:03.613Z,99171.88
2023-05-14T11:28:30.815Z,99181.78
2023-05-14T11:30:58.411Z,99196.25
2023-05-14T11:33:28.095Z,99192.06
2023-05-14T11:35:56.069Z,99219.31
2023-05-14T11:38:23.606Z,99214.34
2023-05-14T11:40:58.908Z,99243.81
2023-05-14T11:43:29.319Z,99232.09
2023-05-14T11:45:57.152Z,99172.94
2023-05-14T11:48:24.825Z,99108.00
2023-05-14T11:50:53.338Z,99074.19
2023-05-14T11:53:25.889Z,99024.28
2023-05-14T11:55:54.747Z,99050.16
2023-05-14T11:58:22.365Z,99077.44
2023-05-14T12:00:53.866Z,99019.28
2023-05-14T12:03:29.701Z,99094.06
2023-05-14T12:06:02.620Z,99064.66
2023-05-14T12:08:31.529Z,99023.41
2023-05-14T12:11:01.044Z,98993.31
2023-05-14T12:13:30.826Z,99004.59
2023-05-14T12:16:00.951Z,98996.00
2023-05-14T12:18:30.976Z,99029.78
2023-05-14T12:21:04.441Z,98942.72
2023-05-14T12:23:33.048Z,98991.94
2023-05-14T12:26:06.953Z,98984.31
2023-05-14T12:28:37.965Z,99017.31
2023-05-14T12:31:05.766Z,98846.22
2023-05-14T12:33:33.338Z,99015.28
2023-05-14T12:36:20.722Z,98924.47
2023-05-14T12:38:50.615Z,98761.88
2023-05-14T12:41:21.371Z,98658.50
2023-05-14T12:43:49.757Z,98721.91
2023-05-14T12:46:19.670Z,98798.91
2023-05-14T12:48:47.289Z,98896.34
2023-05-14T12:51:14.713Z,98858.53
2023-05-14T12:53:42.168Z,98799.50
2023-05-14T12:56:09.825Z,98898.59
2023-05-14T12:58:37.199Z,98849.53
2023-05-14T13:01:05.039Z,98713.59
2023-05-14T13:03:32.144Z,98672.47
2023-05-14T13:05:59.971Z,98739.56
2023-05-14T13:08:27.596Z,98654.25
2023-05-14T13:10:55.483Z,98599.38
2023-05-14T13:13:23.577Z,98599.72
2023-05-14T13:15:53.202Z,98570.47
2023-05-14T13:18:20.652Z,98567.25
2023-05-14T13:20:47.755Z,98659.59
2023-05-14T13:23:15.347Z,98498.38
2023-05-14T13:25:42.727Z,98679.88
2023-05-14T13:28:10.149Z,98543.72
2023-05-14T13:30:37.209Z,98412.47
2023-05-14T13:33:05.276Z,98521.41
2023-05-14T13:35:33.148Z,98404.03
2023-05-14T13:38:00.592Z,98582.66
2023-05-14T13:40:27.708Z,98540.50
2023-05-14T13:42:55.152Z,98461.53
2023-05-14T13:45:22.876Z,98509.47
2023-05-14T13:47:51.565Z,98569.06
2023-05-14T13:50:19.248Z,98338.19
2023-05-14T13:52:46.592Z,98466.78
2023-05-14T13:55:14.251Z,98356.94
2023-05-14T13:57:41.850Z,98454.78
2023-05-14T14:00:09.653Z,98405.88
2023-05-14T14:02:37.177Z,98323.28
2023-05-14T14:05:05.411Z,98372.91
2023-05-14T14:07:32.800Z,98237.22
2023-05-14T14:10:01.673Z,98275.50
2023-05-14T14:12:32.145Z,98082.22
2023-05-14T14:14:59.765Z,98302.34
2023-05-14T14:17:27.333Z,98294.66
2023-05-14T14:19:54.763Z,98344.72
2023-05-14T14:22:22.804Z,98346.94
2023-05-14T14:24:52.153Z,98262.97
2023-05-14T14:27:19.521Z,98102.34
2023-05-14T14:29:46.674Z,98182.50
2023-05-14T14:32:14.037Z,98063.63
2023-05-14T14:34:41.287Z,98196.94
2023-05-14T14:37:08.783Z,98281.50
2023-05-14T14:39:36.199Z,98330.97
2023-05-14T14:42:03.639Z,98178.88
2023-05-14T14:44:31.102Z,98147.53
2023-05-14T14:46:58.628Z,98281.16
2023-05-14T14:49:26.146Z,98144.72
2023-05-14T14:51:53.847Z,98024.28
2023-05-14T14:54:21.262Z,97888.50
2023-05-14T14:56:52.370Z,97902.91
2023-05-14T14:59:19.366Z,98046.31
2023-05-14T15:01:46.869Z,98128.50
2023-05-14T15:04:14.665Z,97985.34
2023-05-14T15:06:42.059Z,97906.94
2023-05-14T15:09:09.432Z,97865.97
2023-05-14T15:11:37.414Z,97983.00
2023-05-14T15:14:05.167Z,98129.03
2023-05-14T15:16:32.185Z,98097.66
2023-05-14T15:18:59.393Z,98038.84
2023-05-14T15:21:26.819Z,98164.50
2023-05-14T15:23:54.239Z,98156.69
2023-05-14T15:26:21.819Z,98046.88
2023-05-14T15:28:48.802Z,98073.47
2023-05-14T15:31:17.313Z,97908.31
2023-05-14T15:33:44.667Z,97917.13
2023-05-14T15:36:12.757Z,97906.38
2023-05-14T15:38:40.654Z,97965.84
2023-05-14T15:41:07.914Z,97995.50
2023-05-14T15:43:35.027Z,97904.59
2023-05-14T15:46:02.052Z,97930.56
2023-05-14T15:48:32.634Z,97826.63
2023-05-14T15:50:59.882Z,97897.00
2023-05-14T15:53:27.246Z,97797.31
2023-05-14T15:55:54.216Z,97783.41
2023-05-14T15:58:22.740Z,97764.81
2023-05-14T16:00:49.707Z,97812.44
2023-05-14T16:03:18.073Z,97838.28
2023-05-14T16:05:45.575Z,97722.47
2023-05-14T16:08:13.191Z,97760.81
2023-05-14T16:10:40.264Z,97802.53
2023-05-14T16:13:07.250Z,97757.28
2023-05-14T16:15:34.942Z,97700.41
2023-05-14T16:18:02.316Z,97563.66
2023-05-14T16:20:31.409Z,97662.91
2023-05-14T16:22:58.381Z,97579.06
2023-05-14T16:25:25.386Z,97655.31
2023-05-14T16:27:52.707Z,97606.53
2023-05-14T16:30:19.800Z,97784.06
2023-05-14T16:32:49.502Z,97756.88
2023-05-14T16:35:17.009Z,97500.09
2023-05-14T16:37:44.396Z,97608.50
2023-05-14T16:40:12.380Z,97667.69
2023-05-14T16:42:39.941Z,97743.72
2023-05-14T16:45:07.979Z,97736.63
2023-05-14T16:47:35.912Z,97692.44
2023-05-14T16:50:03.383Z,97687.84
2023-05-14T16:52:30.974Z,97526.34
2023-05-14T16:54:58.358Z,97634.63
2023-05-14T16:57:26.665Z,97680.94
2023-05-14T16:59:54.317Z,97630.31
2023-05-14T17:02:21.753Z,97641.50
2023-05-14T17:04:49.329Z,97485.75
2023-05-14T17:07:17.043Z,97569.41
2023-05-14T17:09:44.066Z,97837.66
2023-05-14T17:12:13.716Z,97720.13
2023-05-14T17:14:41.107Z,97777.84
2023-05-14T17:17:08.527Z,97731.25
2023-05-14T17:19:35.647Z,97681.72
2023-05-14T17:22:05.972Z,97787.59
2023-05-14T17:24:33.101Z,97746.63
2023-05-14T17:27:00.530Z,97807.41
2023-05-14T17:29:28.115Z,97876.25
2023-05-14T17:31:55.123Z,97808.69
2023-05-14T17:34:22.550Z,97854.88
2023-05-14T17:36:50.163Z,97831.19
2023-05-14T17:39:17.624Z,97893.75
2023-05-14T17:41:44.899Z,97829.47
2023-05-14T17:46:54.915Z,97852.31
2023-05-14T17:49:22.628Z,97924.91
2023-05-14T17:51:50.239Z,97873.31
2023-05-14T17:54:17.556Z,97878.69
2023-05-14T17:56:44.857Z,98039.44
2023-05-14T17:59:12.262Z,97989.16
2023-05-14T18:01:39.547Z,97899.09
2023-05-14T18:04:06.876Z,97935.66
2023-05-14T18:06:34.067Z,98216.56
2023-05-14T18:09:01.034Z,98208.16
2023-05-14T18:11:33.705Z,97948.50
2023-05-14T18:14:01.443Z,97977.25
2023-05-14T18:16:29.105Z,97968.94
2023-05-14T18:19:00.413Z,98063.84
2023-05-14T18:21:27.594Z,98079.13
2023-05-14T18:23:54.603Z,98082.41
2023-05-14T18:26:24.166Z,98101.19
2023-05-14T18:28:51.566Z,98142.59
2023-05-14T18:31:18.590Z,98217.34
2023-05-14T18:33:46.127Z,98196.47
2023-05-14T18:36:13.174Z,98243.34
2023-05-14T18:38:41.026Z,98276.28
2023-05-14T18:41:08.013Z,98287.09
2023-05-14T18:43:34.983Z,98336.56
2023-05-14T18:46:02.074Z,98374.56
2023-05-14T18:48:30.657Z,98359.47
2023-05-14T18:50:58.146Z,98439.63
2023-05-14T18:53:25.344Z,98446.41
2023-05-14T18:55:52.343Z,98455.34
2023-05-14T18:58:19.390Z,98506.41
2023-05-14T19:00:46.766Z,98597.81
2023-05-14T19:03:14.138Z,98573.00
2023-05-14T19:05:41.238Z,98619.84
2023-05-14T19:08:08.725Z,98667.13
2023-05-14T19:10:35.811Z,98694.69
2023-05-14T19:13:03.695Z,98709.53
2023-05-14T19:15:33.800Z,98747.81
2023-05-14T19:18:01.630Z,98789.78
2023-05-14T19:20:28.764Z,98799.31
2023-05-14T19:22:55.870Z,98817.22
2023-05-14T19:25:23.121Z,98860.22
2023-05-14T19:27:51.283Z,98893.19
2023-05-14T19:30:19.559Z,98911.28
2023-05-14T19:32:47.079Z,98924.44
2023-05-14T19:35:16.561Z,98952.81
2023-05-14T19:37:43.653Z,98934.75
2023-05-14T19:40:11.354Z,98934.22
2023-05-14T19:42:38.447Z,98965.88
2023-05-14T19:45:06.811Z,98968.41
2023-05-14T19:47:34.504Z,98999.47
2023-05-14T19:50:02.019Z,99002.03
2023-05-14T19:52:29.105Z,98996.88
2023-05-14T19:54:56.321Z,99039.94
2023-05-14T19:57:23.785Z,99017.88
2023-05-14T19:59:51.278Z,99032.19
2023-05-14T20:02:21.682Z,99007.59
2023-05-14T20:04:49.603Z,99039.69
2023-05-14T20:07:17.334Z,99064.31
2023-05-14T20:09:44.883Z,99072.56
2023-05-14T20:12:13.351Z,99101.19
2023-05-14T20:14:41.435Z,99110.13
2023-05-14T20:17:09.197Z,99130.78
2023-05-14T20:19:36.920Z,99160.50
2023-05-14T20:22:04.205Z,99159.81
2023-05-14T20:24:31.873Z,99187.72
2023-05-14T20:26:59.589Z,99212.47
2023-05-14T20:29:27.000Z,99216.19
2023-05-14T20:31:54.453Z,99222.09
2023-05-14T20:34:21.993Z,99228.25
2023-05-14T20:36:49.406Z,99245.72
2023-05-14T20:39:16.768Z,99234.44
2023-05-14T20:41:45.711Z,99226.41
2023-05-14T20:44:12.838Z,99236.34
2023-05-14T20:46:40.135Z,99218.88
2023-05-14T20:49:07.539Z,99265.47
2023-05-14T20:51:34.509Z,99246.84
2023-05-14T20:54:02.580Z,99221.31
2023-05-14T20:56:30.457Z,99226.72
2023-05-14T20:58:57.530Z,99247.44
2023-05-14T21:01:24.631Z,99250.09
2023-05-14T21:03:51.859Z,99263.63
2023-05-14T21:06:18.925Z,99268.44
2023-05-14T21:08:45.960Z,99288.06
2023-05-14T21:11:12.968Z,99301.25
2023-05-14T21:13:39.908Z,99313.06
2023-05-14T21:16:07.477Z,99321.19
2023-05-14T21:18:34.528Z,99323.94
2023-05-14T21:21:01.543Z,99351.47
2023-05-14T21:23:28.596Z,99351.78
2023-05-14T21:25:55.758Z,99366.69
2023-05-14T21:28:23.014Z,99368.72
2023-05-14T21:30:51.248Z,99375.03
2023-05-14T21:33:18.617Z,99403.41
2023-05-14T21:35:45.615Z,99391.00
2023-05-14T21:38:12.634Z,99430.78
2023-05-14T21:40:39.615Z,99412.81
2023-05-14T21:43:06.838Z,99426.72
2023-05-14T21:45:35.265Z,99425.09
2023-05-14T21:48:02.347Z,99442.19
2023-05-14T21:50:29.773Z,99445.09
2023-05-14T21:52:56.963Z,99454.13
2023-05-14T21:55:24.404Z,99469.38
2023-05-14T21:57:51.809Z,99474.69
2023-05-14T22:00:23.479Z,99494.47
2023-05-14T22:02:52.595Z,99494.56
2023-05-14T22:05:20.698Z,99516.59
2023-05-14T22:07:48.778Z,99530.81
2023-05-14T22:10:16.679Z,99526.50
2023-05-14T22:12:45.164Z,99546.19
2023-05-14T22:15:12.823Z,99569.22
2023-05-14T22:17:39.931Z,99609.13
2023-05-14T22:20:07.747Z,99606.34
2023-05-14T22:22:34.979Z,99600.16
2023-05-14T22:25:24.814Z,99599.34
2023-05-14T22:27:52.145Z,99600.19
2023-05-14T22:30:19.654Z,99597.63
2023-05-14T22:32:47.674Z,99607.31
2023-05-14T22:35:15.481Z,99612.59
2023-05-14T22:37:42.948Z,99607.31
2023-05-14T22:40:10.677Z,99618.97
2023-05-14T22:42:38.134Z,99626.97
2023-05-14T22:45:05.796Z,99636.00
2023-05-14T22:47:32.828Z,99646.69
2023-05-14T22:49:59.896Z,99645.78
2023-05-14T22:52:27.016Z,99657.31
2023-05-14T22:54:54.559Z,99664.34
2023-05-14T22:57:21.919Z,99645.09
2023-05-14T22:59:49.345Z,99655.72
2023-05-14T23:02:16.427Z,99666.38
2023-05-14T23:04:43.857Z,99676.06
2023-05-14T23:07:10.908Z,99677.09
2023-05-14T23:09:37.864Z,99685.88
2023-05-14T23:12:05.444Z,99692.91
2023-05-14T23:14:32.452Z,99699.97
2023-05-14T23:16:59.669Z,99697.38
2023-05-14T23:19:26.715Z,99717.75
2023-05-14T23:21:53.735Z,99706.28
2023-05-14T23:24:20.786Z,99706.31
2023-05-14T23:26:47.886Z,99702.91
2023-05-14T23:29:14.935Z,99714.31
2023-05-14T23:31:43.639Z,99708.19
2023-05-14T23:34:10.954Z,99714.47
2023-05-14T23:36:39.756Z,99720.75
2023-05-14T23:39:06.818Z,99725.16
2023-05-14T23:41:33.744Z,99725.25
2023-05-14T23:44:00.851Z,99726.06
2023-05-14T23:46:28.222Z,99734.13
2023-05-14T23:48:57.174Z,99733.25
2023-05-14T23:51:24.752Z,99735.00
2023-05-14T23:53:56.329Z,99732.41
2023-05-14T23:56:29.186Z,99733.38
2023-05-14T23:58:56.804Z,99743.09
